sensor_id;sensor_type;location;lat;lon;timestamp;temperature;humidity
46331;DHT22;32049;52.346;4.870;2022-07-04T06:07:05;17.70;99.90
46331;DHT22;32049;52.346;4.870;2022-07-04T06:09:54;18.10;99.90
46331;DHT22;32049;52.346;4.870;2022-07-04T06:12:52;18.20;99.90
46331;DHT22;32049;52.346;4.870;2022-07-04T06:15:42;18.40;99.90
46331;DHT22;32049;52.346;4.870;2022-07-04T06:18:31;18.60;99.90
46331;DHT22;32049;52.346;4.870;2022-07-04T06:21:22;18.60;99.90
46331;DHT22;32049;52.346;4.870;2022-07-04T06:24:10;19.00;99.90
46331;DHT22;32049;52.346;4.870;2022-07-04T06:26:57;18.80;99.90
46331;DHT22;32049;52.346;4.870;2022-07-04T06:29:45;18.80;99.90
46331;DHT22;32049;52.346;4.870;2022-07-04T06:32:50;18.80;99.90
46331;DHT22;32049;52.346;4.870;2022-07-04T06:35:42;18.50;99.90
46331;DHT22;32049;52.346;4.870;2022-07-04T06:57:08;18.70;99.90
46331;DHT22;32049;52.346;4.870;2022-07-04T07:00:35;18.90;99.90
46331;DHT22;32049;52.346;4.870;2022-07-04T07:03:23;18.90;99.90
46331;DHT22;32049;52.346;4.870;2022-07-04T07:06:21;18.90;99.90
46331;DHT22;32049;52.346;4.870;2022-07-04T07:09:20;19.10;99.90
46331;DHT22;32049;52.346;4.870;2022-07-04T07:12:21;19.00;99.90
46331;DHT22;32049;52.346;4.870;2022-07-04T07:15:16;19.10;99.90
46331;DHT22;32049;52.346;4.870;2022-07-04T07:18:22;19.10;99.90
46331;DHT22;32049;52.346;4.870;2022-07-04T07:21:11;19.10;99.90
46331;DHT22;32049;52.346;4.870;2022-07-04T07:24:02;19.30;99.90
46331;DHT22;32049;52.346;4.870;2022-07-04T07:27:06;19.50;99.90
46331;DHT22;32049;52.346;4.870;2022-07-04T07:29:58;19.70;99.90
46331;DHT22;32049;52.346;4.870;2022-07-04T07:32:49;19.40;99.90
46331;DHT22;32049;52.346;4.870;2022-07-04T07:35:38;19.50;99.90
46331;DHT22;32049;52.346;4.870;2022-07-04T07:38:28;19.40;99.90
46331;DHT22;32049;52.346;4.870;2022-07-04T07:41:15;19.40;99.90
46331;DHT22;32049;52.346;4.870;2022-07-04T07:44:15;19.50;99.90
46331;DHT22;32049;52.346;4.870;2022-07-04T07:47:03;19.50;99.90
46331;DHT22;32049;52.346;4.870;2022-07-04T07:50:00;19.60;99.90
46331;DHT22;32049;52.346;4.870;2022-07-04T07:52:58;19.70;99.90
46331;DHT22;32049;52.346;4.870;2022-07-04T07:55:58;19.90;99.90
46331;DHT22;32049;52.346;4.870;2022-07-04T07:58:50;20.00;99.90
46331;DHT22;32049;52.346;4.870;2022-07-04T08:01:40;20.00;99.90
46331;DHT22;32049;52.346;4.870;2022-07-04T08:04:28;20.10;99.90
46331;DHT22;32049;52.346;4.870;2022-07-04T08:07:22;19.90;99.90
46331;DHT22;32049;52.346;4.870;2022-07-04T08:10:10;20.10;99.90
46331;DHT22;32049;52.346;4.870;2022-07-04T08:13:02;20.00;99.90
46331;DHT22;32049;52.346;4.870;2022-07-04T08:15:52;20.00;99.90
46331;DHT22;32049;52.346;4.870;2022-07-04T08:18:53;19.80;99.90
46331;DHT22;32049;52.346;4.870;2022-07-04T08:21:52;19.90;99.90
46331;DHT22;32049;52.346;4.870;2022-07-04T08:25:02;19.80;99.90
46331;DHT22;32049;52.346;4.870;2022-07-04T08:27:52;20.00;99.90
46331;DHT22;32049;52.346;4.870;2022-07-04T08:30:43;20.00;99.90
46331;DHT22;32049;52.346;4.870;2022-07-04T08:33:49;19.80;99.90
46331;DHT22;32049;52.346;4.870;2022-07-04T08:36:47;19.70;99.90
46331;DHT22;32049;52.346;4.870;2022-07-04T08:39:35;19.50;99.90
46331;DHT22;32049;52.346;4.870;2022-07-04T08:42:39;19.50;99.90
46331;DHT22;32049;52.346;4.870;2022-07-04T08:45:38;19.60;99.90
46331;DHT22;32049;52.346;4.870;2022-07-04T08:48:52;19.50;99.90
46331;DHT22;32049;52.346;4.870;2022-07-04T08:52:00;19.80;99.90
46331;DHT22;32049;52.346;4.870;2022-07-04T08:54:55;19.70;99.90
46331;DHT22;32049;52.346;4.870;2022-07-04T08:58:10;19.90;99.90
46331;DHT22;32049;52.346;4.870;2022-07-04T09:01:33;19.90;99.90
46331;DHT22;32049;52.346;4.870;2022-07-04T09:04:29;20.00;99.90
46331;DHT22;32049;52.346;4.870;2022-07-04T09:07:25;20.00;99.90
46331;DHT22;32049;52.346;4.870;2022-07-04T09:10:17;20.20;99.90
46331;DHT22;32049;52.346;4.870;2022-07-04T09:13:15;20.10;99.90
46331;DHT22;32049;52.346;4.870;2022-07-04T09:16:11;20.10;99.90
46331;DHT22;32049;52.346;4.870;2022-07-04T09:18:58;19.90;99.90
46331;DHT22;32049;52.346;4.870;2022-07-04T09:22:04;19.90;99.90
46331;DHT22;32049;52.346;4.870;2022-07-04T09:25:05;19.80;99.90
46331;DHT22;32049;52.346;4.870;2022-07-04T09:28:03;20.00;99.90
46331;DHT22;32049;52.346;4.870;2022-07-04T09:30:58;20.60;99.90
46331;DHT22;32049;52.346;4.870;2022-07-04T09:34:05;20.90;99.90
46331;DHT22;32049;52.346;4.870;2022-07-04T09:37:08;21.10;99.90
46331;DHT22;32049;52.346;4.870;2022-07-04T09:39:57;20.90;99.90
46331;DHT22;32049;52.346;4.870;2022-07-04T09:42:45;21.10;99.90
46331;DHT22;32049;52.346;4.870;2022-07-04T09:46:06;21.20;99.90
46331;DHT22;32049;52.346;4.870;2022-07-04T09:49:02;21.30;99.90
46331;DHT22;32049;52.346;4.870;2022-07-04T09:51:57;21.20;99.90
46331;DHT22;32049;52.346;4.870;2022-07-04T09:54:47;20.70;99.90
46331;DHT22;32049;52.346;4.870;2022-07-04T09:57:45;20.50;99.90
46331;DHT22;32049;52.346;4.870;2022-07-04T10:00:46;21.00;99.90
46331;DHT22;32049;52.346;4.870;2022-07-04T10:03:36;20.40;99.90
46331;DHT22;32049;52.346;4.870;2022-07-04T10:11:04;20.50;99.90
46331;DHT22;32049;52.346;4.870;2022-07-04T10:14:07;21.40;99.60
46331;DHT22;32049;52.346;4.870;2022-07-04T10:17:04;21.30;99.70
46331;DHT22;32049;52.346;4.870;2022-07-04T10:23:24;20.50;99.90
46331;DHT22;32049;52.346;4.870;2022-07-04T10:26:27;20.70;99.90
46331;DHT22;32049;52.346;4.870;2022-07-04T10:29:14;21.20;99.90
46331;DHT22;32049;52.346;4.870;2022-07-04T10:32:20;21.50;98.90
46331;DHT22;32049;52.346;4.870;2022-07-04T10:35:08;21.10;98.60
46331;DHT22;32049;52.346;4.870;2022-07-04T10:43:51;21.10;98.00
46331;DHT22;32049;52.346;4.870;2022-07-04T10:46:48;21.60;98.00
46331;DHT22;32049;52.346;4.870;2022-07-04T10:49:42;21.90;97.80
46331;DHT22;32049;52.346;4.870;2022-07-04T10:52:32;21.60;97.40
46331;DHT22;32049;52.346;4.870;2022-07-04T10:55:41;21.20;97.40
46331;DHT22;32049;52.346;4.870;2022-07-04T10:58:44;21.40;96.90
46331;DHT22;32049;52.346;4.870;2022-07-04T11:02:46;21.10;97.00
46331;DHT22;32049;52.346;4.870;2022-07-04T11:09:36;21.80;96.80
46331;DHT22;32049;52.346;4.870;2022-07-04T11:16:53;22.10;96.50
46331;DHT22;32049;52.346;4.870;2022-07-04T11:23:17;22.10;95.30
46331;DHT22;32049;52.346;4.870;2022-07-04T11:26:06;22.10;95.70
46331;DHT22;32049;52.346;4.870;2022-07-04T11:28:58;22.10;95.70
46331;DHT22;32049;52.346;4.870;2022-07-04T11:31:50;22.50;95.10
46331;DHT22;32049;52.346;4.870;2022-07-04T11:39:35;22.20;94.10
46331;DHT22;32049;52.346;4.870;2022-07-04T11:43:38;22.40;94.90
46331;DHT22;32049;52.346;4.870;2022-07-04T11:50:09;22.60;94.00
46331;DHT22;32049;52.346;4.870;2022-07-04T11:53:05;22.90;94.00
46331;DHT22;32049;52.346;4.870;2022-07-04T11:56:13;22.30;94.60
46331;DHT22;32049;52.346;4.870;2022-07-04T11:59:15;23.00;94.30
46331;DHT22;32049;52.346;4.870;2022-07-04T12:02:28;22.60;94.00
46331;DHT22;32049;52.346;4.870;2022-07-04T12:05:23;23.00;94.20
46331;DHT22;32049;52.346;4.870;2022-07-04T12:08:15;22.90;94.00
46331;DHT22;32049;52.346;4.870;2022-07-04T12:11:18;22.60;94.80
46331;DHT22;32049;52.346;4.870;2022-07-04T12:14:34;23.00;94.60
46331;DHT22;32049;52.346;4.870;2022-07-04T12:17:38;22.50;94.90
46331;DHT22;32049;52.346;4.870;2022-07-04T12:20:33;22.90;94.80
46331;DHT22;32049;52.346;4.870;2022-07-04T12:23:54;22.70;94.80
46331;DHT22;32049;52.346;4.870;2022-07-04T12:27:04;22.80;94.40
46331;DHT22;32049;52.346;4.870;2022-07-04T12:30:16;22.60;94.70
46331;DHT22;32049;52.346;4.870;2022-07-04T12:34:13;22.80;94.60
46331;DHT22;32049;52.346;4.870;2022-07-04T12:37:28;22.90;94.40
46331;DHT22;32049;52.346;4.870;2022-07-04T12:40:21;22.50;94.70
46331;DHT22;32049;52.346;4.870;2022-07-04T12:46:32;22.30;94.60
46331;DHT22;32049;52.346;4.870;2022-07-04T12:49:31;22.40;95.20
46331;DHT22;32049;52.346;4.870;2022-07-04T12:52:28;23.20;94.70
46331;DHT22;32049;52.346;4.870;2022-07-04T12:55:19;22.20;94.80
46331;DHT22;32049;52.346;4.870;2022-07-04T12:58:24;22.30;95.40
46331;DHT22;32049;52.346;4.870;2022-07-04T13:01:37;22.50;94.50
46331;DHT22;32049;52.346;4.870;2022-07-04T13:04:36;22.60;95.30
46331;DHT22;32049;52.346;4.870;2022-07-04T13:07:24;22.80;94.70
46331;DHT22;32049;52.346;4.870;2022-07-04T13:10:15;22.90;94.20
46331;DHT22;32049;52.346;4.870;2022-07-04T13:13:09;23.00;94.30
46331;DHT22;32049;52.346;4.870;2022-07-04T13:16:20;22.90;94.10
46331;DHT22;32049;52.346;4.870;2022-07-04T13:19:16;22.40;94.30
46331;DHT22;32049;52.346;4.870;2022-07-04T13:22:08;23.00;94.20
46331;DHT22;32049;52.346;4.870;2022-07-04T13:25:00;22.60;94.20
46331;DHT22;32049;52.346;4.870;2022-07-04T13:27:53;23.10;94.40
46331;DHT22;32049;52.346;4.870;2022-07-04T13:30:43;23.20;94.00
46331;DHT22;32049;52.346;4.870;2022-07-04T13:33:31;23.30;93.70
46331;DHT22;32049;52.346;4.870;2022-07-04T13:36:35;22.90;93.90
46331;DHT22;32049;52.346;4.870;2022-07-04T13:39:24;22.60;94.00
46331;DHT22;32049;52.346;4.870;2022-07-04T13:42:42;22.70;94.50
46331;DHT22;32049;52.346;4.870;2022-07-04T13:46:03;23.00;94.20
46331;DHT22;32049;52.346;4.870;2022-07-04T13:48:53;22.30;94.50
46331;DHT22;32049;52.346;4.870;2022-07-04T13:51:42;22.80;94.10
46331;DHT22;32049;52.346;4.870;2022-07-04T13:54:33;23.00;94.20
46331;DHT22;32049;52.346;4.870;2022-07-04T13:57:25;22.90;94.10
46331;DHT22;32049;52.346;4.870;2022-07-04T14:00:13;22.70;94.20
46331;DHT22;32049;52.346;4.870;2022-07-04T14:03:07;22.70;94.40
46331;DHT22;32049;52.346;4.870;2022-07-04T14:05:55;23.20;94.20
46331;DHT22;32049;52.346;4.870;2022-07-04T14:08:46;22.60;94.10
46331;DHT22;32049;52.346;4.870;2022-07-04T14:11:38;22.70;94.30
46331;DHT22;32049;52.346;4.870;2022-07-04T14:14:26;22.50;94.40
46331;DHT22;32049;52.346;4.870;2022-07-04T14:17:14;22.40;93.90
46331;DHT22;32049;52.346;4.870;2022-07-04T14:20:21;22.40;94.40
46331;DHT22;32049;52.346;4.870;2022-07-04T14:23:18;22.50;94.30
46331;DHT22;32049;52.346;4.870;2022-07-04T14:26:26;22.80;94.50
46331;DHT22;32049;52.346;4.870;2022-07-04T14:29:14;23.10;94.20
46331;DHT22;32049;52.346;4.870;2022-07-04T14:32:05;22.50;94.50
46331;DHT22;32049;52.346;4.870;2022-07-04T14:34:59;22.50;94.20
46331;DHT22;32049;52.346;4.870;2022-07-04T14:37:59;22.30;94.50
46331;DHT22;32049;52.346;4.870;2022-07-04T14:40:47;22.20;94.60
46331;DHT22;32049;52.346;4.870;2022-07-04T14:43:41;22.30;94.70
46331;DHT22;32049;52.346;4.870;2022-07-04T14:46:35;22.00;94.80
46331;DHT22;32049;52.346;4.870;2022-07-04T14:49:30;22.50;94.50
46331;DHT22;32049;52.346;4.870;2022-07-04T14:52:25;22.40;95.00
46331;DHT22;32049;52.346;4.870;2022-07-04T14:55:13;22.20;95.20
46331;DHT22;32049;52.346;4.870;2022-07-04T14:58:00;22.10;94.90
46331;DHT22;32049;52.346;4.870;2022-07-04T15:00:48;22.40;94.90
46331;DHT22;32049;52.346;4.870;2022-07-04T15:03:49;21.70;95.60
46331;DHT22;32049;52.346;4.870;2022-07-04T15:06:39;21.90;95.30
46331;DHT22;32049;52.346;4.870;2022-07-04T15:09:29;21.70;95.30
46331;DHT22;32049;52.346;4.870;2022-07-04T15:12:19;22.10;94.90
46331;DHT22;32049;52.346;4.870;2022-07-04T15:15:34;22.00;95.00
46331;DHT22;32049;52.346;4.870;2022-07-04T15:18:30;22.10;95.50
46331;DHT22;32049;52.346;4.870;2022-07-04T15:21:24;22.40;94.70
46331;DHT22;32049;52.346;4.870;2022-07-04T15:24:33;22.00;94.90
46331;DHT22;32049;52.346;4.870;2022-07-04T15:27:21;21.80;95.00
46331;DHT22;32049;52.346;4.870;2022-07-04T15:30:15;22.30;95.10
46331;DHT22;32049;52.346;4.870;2022-07-04T15:33:03;22.00;94.80
46331;DHT22;32049;52.346;4.870;2022-07-04T15:36:10;22.10;94.70
46331;DHT22;32049;52.346;4.870;2022-07-04T15:39:08;21.80;95.40
46331;DHT22;32049;52.346;4.870;2022-07-04T15:41:57;21.90;95.10
46331;DHT22;32049;52.346;4.870;2022-07-04T15:44:45;22.10;95.20
46331;DHT22;32049;52.346;4.870;2022-07-04T15:47:36;21.90;95.40
46331;DHT22;32049;52.346;4.870;2022-07-04T15:50:44;21.80;95.20
46331;DHT22;32049;52.346;4.870;2022-07-04T15:53:50;21.60;95.10
46331;DHT22;32049;52.346;4.870;2022-07-04T15:56:43;21.70;95.80
46331;DHT22;32049;52.346;4.870;2022-07-04T15:59:38;21.70;95.70
46331;DHT22;32049;52.346;4.870;2022-07-04T16:02:31;21.60;95.90
46331;DHT22;32049;52.346;4.870;2022-07-04T16:05:24;21.80;95.80
46331;DHT22;32049;52.346;4.870;2022-07-04T16:08:38;21.60;95.70
46331;DHT22;32049;52.346;4.870;2022-07-04T16:15:43;21.80;95.60
46331;DHT22;32049;52.346;4.870;2022-07-04T16:18:36;21.60;96.00
46331;DHT22;32049;52.346;4.870;2022-07-04T16:21:38;21.50;95.90
46331;DHT22;32049;52.346;4.870;2022-07-04T16:24:31;21.30;95.50
46331;DHT22;32049;52.346;4.870;2022-07-04T16:27:24;21.40;96.00
46331;DHT22;32049;52.346;4.870;2022-07-04T16:30:16;21.50;95.70
46331;DHT22;32049;52.346;4.870;2022-07-04T16:33:04;21.50;95.90
46331;DHT22;32049;52.346;4.870;2022-07-04T16:36:06;21.70;96.00
46331;DHT22;32049;52.346;4.870;2022-07-04T16:38:56;21.60;95.90
46331;DHT22;32049;52.346;4.870;2022-07-04T16:41:47;21.60;95.60
46331;DHT22;32049;52.346;4.870;2022-07-04T16:44:36;21.40;95.70
46331;DHT22;32049;52.346;4.870;2022-07-04T16:47:27;21.20;96.30
46331;DHT22;32049;52.346;4.870;2022-07-04T16:50:15;21.20;96.20
46331;DHT22;32049;52.346;4.870;2022-07-04T16:53:04;21.30;96.10
46331;DHT22;32049;52.346;4.870;2022-07-04T16:55:52;21.20;95.80
46331;DHT22;32049;52.346;4.870;2022-07-04T16:58:45;21.30;96.00
46331;DHT22;32049;52.346;4.870;2022-07-04T17:01:33;21.20;95.90
46331;DHT22;32049;52.346;4.870;2022-07-04T17:04:27;21.10;95.80
46331;DHT22;32049;52.346;4.870;2022-07-04T17:07:14;21.10;96.10
46331;DHT22;32049;52.346;4.870;2022-07-04T17:10:03;21.10;95.90
46331;DHT22;32049;52.346;4.870;2022-07-04T17:12:54;21.10;96.20
46331;DHT22;32049;52.346;4.870;2022-07-04T17:15:45;20.70;95.90
46331;DHT22;32049;52.346;4.870;2022-07-04T17:18:33;20.80;96.30
46331;DHT22;32049;52.346;4.870;2022-07-04T17:21:22;21.10;96.00
46331;DHT22;32049;52.346;4.870;2022-07-04T17:24:09;21.10;95.90
46331;DHT22;32049;52.346;4.870;2022-07-04T17:26:57;20.90;96.40
46331;DHT22;32049;52.346;4.870;2022-07-04T17:29:55;20.70;96.30
46331;DHT22;32049;52.346;4.870;2022-07-04T17:32:43;20.90;96.70
46331;DHT22;32049;52.346;4.870;2022-07-04T17:35:33;21.10;96.50
46331;DHT22;32049;52.346;4.870;2022-07-04T17:38:23;21.10;96.40
46331;DHT22;32049;52.346;4.870;2022-07-04T17:41:11;21.20;96.90
46331;DHT22;32049;52.346;4.870;2022-07-04T17:44:18;20.60;96.80
46331;DHT22;32049;52.346;4.870;2022-07-04T17:47:07;20.20;97.80
46331;DHT22;32049;52.346;4.870;2022-07-04T17:49:57;20.30;98.00
46331;DHT22;32049;52.346;4.870;2022-07-04T17:52:45;20.20;98.10
46331;DHT22;32049;52.346;4.870;2022-07-04T17:55:32;20.40;98.00
46331;DHT22;32049;52.346;4.870;2022-07-04T17:58:23;20.30;98.40
46331;DHT22;32049;52.346;4.870;2022-07-04T18:01:10;19.80;97.80
46331;DHT22;32049;52.346;4.870;2022-07-04T18:03:59;20.10;98.40
46331;DHT22;32049;52.346;4.870;2022-07-04T18:06:48;20.30;98.60
46331;DHT22;32049;52.346;4.870;2022-07-04T18:09:36;20.10;98.20
46331;DHT22;32049;52.346;4.870;2022-07-04T18:12:23;20.00;98.10
46331;DHT22;32049;52.346;4.870;2022-07-04T18:15:19;20.00;98.10
46331;DHT22;32049;52.346;4.870;2022-07-04T18:18:09;20.10;98.20
46331;DHT22;32049;52.346;4.870;2022-07-04T18:20:59;20.30;98.80
46331;DHT22;32049;52.346;4.870;2022-07-04T18:23:47;19.90;98.60
46331;DHT22;32049;52.346;4.870;2022-07-04T18:26:38;20.10;98.00
46331;DHT22;32049;52.346;4.870;2022-07-04T18:29:26;20.00;98.80
46331;DHT22;32049;52.346;4.870;2022-07-04T18:32:14;19.80;98.10
46331;DHT22;32049;52.346;4.870;2022-07-04T18:35:02;19.90;99.00
46331;DHT22;32049;52.346;4.870;2022-07-04T18:37:52;19.80;98.60
46331;DHT22;32049;52.346;4.870;2022-07-04T18:40:39;19.90;99.10
46331;DHT22;32049;52.346;4.870;2022-07-04T18:43:47;20.00;99.00
46331;DHT22;32049;52.346;4.870;2022-07-04T18:46:38;19.80;98.60
46331;DHT22;32049;52.346;4.870;2022-07-04T18:49:27;19.70;99.00
46331;DHT22;32049;52.346;4.870;2022-07-04T18:52:18;20.20;99.00
46331;DHT22;32049;52.346;4.870;2022-07-04T18:55:07;20.00;99.10
46331;DHT22;32049;52.346;4.870;2022-07-04T18:57:54;19.90;99.70
46331;DHT22;32049;52.346;4.870;2022-07-04T19:00:43;20.10;99.50
46331;DHT22;32049;52.346;4.870;2022-07-04T19:03:35;20.10;99.60
46331;DHT22;32049;52.346;4.870;2022-07-04T19:06:36;20.00;99.70
46331;DHT22;32049;52.346;4.870;2022-07-04T19:09:25;20.00;99.40
46331;DHT22;32049;52.346;4.870;2022-07-04T19:12:14;20.10;99.60
46331;DHT22;32049;52.346;4.870;2022-07-04T19:15:03;19.80;99.90
46331;DHT22;32049;52.346;4.870;2022-07-04T19:17:58;19.80;99.90
46331;DHT22;32049;52.346;4.870;2022-07-04T19:20:51;19.50;99.90
46331;DHT22;32049;52.346;4.870;2022-07-04T19:23:40;19.20;99.90
46331;DHT22;32049;52.346;4.870;2022-07-04T19:26:29;19.10;99.90
46331;DHT22;32049;52.346;4.870;2022-07-04T19:29:21;18.80;99.90
46331;DHT22;32049;52.346;4.870;2022-07-04T19:32:11;18.80;99.90
46331;DHT22;32049;52.346;4.870;2022-07-04T19:35:11;18.80;99.90
46331;DHT22;32049;52.346;4.870;2022-07-04T19:38:00;18.60;99.90
46331;DHT22;32049;52.346;4.870;2022-07-04T19:40:58;18.60;99.90
46331;DHT22;32049;52.346;4.870;2022-07-04T19:44:16;18.50;99.90
46331;DHT22;32049;52.346;4.870;2022-07-04T19:47:09;18.40;99.90
46331;DHT22;32049;52.346;4.870;2022-07-04T19:50:00;18.50;99.90
46331;DHT22;32049;52.346;4.870;2022-07-04T19:53:04;18.60;99.90
46331;DHT22;32049;52.346;4.870;2022-07-04T19:55:56;18.50;99.90
46331;DHT22;32049;52.346;4.870;2022-07-04T19:58:45;18.30;99.90
46331;DHT22;32049;52.346;4.870;2022-07-04T20:01:35;18.40;99.90
46331;DHT22;32049;52.346;4.870;2022-07-04T20:04:24;18.40;99.90
46331;DHT22;32049;52.346;4.870;2022-07-04T20:07:13;18.20;99.90
46331;DHT22;32049;52.346;4.870;2022-07-04T20:10:33;18.30;99.90
46331;DHT22;32049;52.346;4.870;2022-07-04T20:13:24;18.20;99.90
46331;DHT22;32049;52.346;4.870;2022-07-04T20:16:18;18.30;99.90
46331;DHT22;32049;52.346;4.870;2022-07-04T20:19:14;18.20;99.90
46331;DHT22;32049;52.346;4.870;2022-07-04T20:22:06;18.10;99.90
46331;DHT22;32049;52.346;4.870;2022-07-04T20:25:06;18.10;99.90
46331;DHT22;32049;52.346;4.870;2022-07-04T20:28:05;18.00;99.90
46331;DHT22;32049;52.346;4.870;2022-07-04T20:31:09;18.20;99.90
46331;DHT22;32049;52.346;4.870;2022-07-04T20:34:00;18.10;99.90
46331;DHT22;32049;52.346;4.870;2022-07-04T20:37:03;18.10;99.90
46331;DHT22;32049;52.346;4.870;2022-07-04T20:39:56;18.00;99.90
46331;DHT22;32049;52.346;4.870;2022-07-04T20:42:47;18.10;99.90
46331;DHT22;32049;52.346;4.870;2022-07-04T20:45:49;18.10;99.90
46331;DHT22;32049;52.346;4.870;2022-07-04T20:48:41;18.10;99.90
46331;DHT22;32049;52.346;4.870;2022-07-04T20:51:33;18.10;99.90
46331;DHT22;32049;52.346;4.870;2022-07-04T20:54:31;18.10;99.90
46331;DHT22;32049;52.346;4.870;2022-07-04T20:57:26;18.10;99.90
46331;DHT22;32049;52.346;4.870;2022-07-04T21:00:18;18.20;99.90
46331;DHT22;32049;52.346;4.870;2022-07-04T21:03:14;18.20;99.90
46331;DHT22;32049;52.346;4.870;2022-07-04T21:06:07;18.20;99.90
46331;DHT22;32049;52.346;4.870;2022-07-04T21:09:00;18.30;99.90
46331;DHT22;32049;52.346;4.870;2022-07-04T21:11:50;18.30;99.90
46331;DHT22;32049;52.346;4.870;2022-07-04T21:14:41;18.20;99.90
46331;DHT22;32049;52.346;4.870;2022-07-04T21:17:33;18.20;99.90
46331;DHT22;32049;52.346;4.870;2022-07-04T21:20:37;18.10;99.90
46331;DHT22;32049;52.346;4.870;2022-07-04T21:23:33;18.00;99.90
46331;DHT22;32049;52.346;4.870;2022-07-04T21:26:24;18.00;99.90
46331;DHT22;32049;52.346;4.870;2022-07-04T21:29:18;18.00;99.90
46331;DHT22;32049;52.346;4.870;2022-07-04T21:32:07;18.00;99.90
46331;DHT22;32049;52.346;4.870;2022-07-04T21:35:01;18.00;99.90
46331;DHT22;32049;52.346;4.870;2022-07-04T23:42:23;17.50;99.90
46331;DHT22;32049;52.346;4.870;2022-07-04T23:45:19;17.50;99.90
46331;DHT22;32049;52.346;4.870;2022-07-04T23:48:15;17.60;99.90
46331;DHT22;32049;52.346;4.870;2022-07-04T23:51:06;17.50;99.90
46331;DHT22;32049;52.346;4.870;2022-07-04T23:54:20;17.40;99.90
46331;DHT22;32049;52.346;4.870;2022-07-04T23:57:14;17.50;99.90
